Historyczne dane pomiarowe

Dodano dane terminowe – wersja testowa.

Dane z okresu 1951-2019

Wersja bazy: 1.34 [2019-03-16, lista zmian], aktualizacja planowana na 2019-04-15

Dane meteo z obszaru Polski uzyskane na podstawie danych udostępnionych przez Instytut Meteorologii i Gospodarki Wodnej – Państwowy Instytut Badawczy.

 

Wybierz Datę:    

       

TemperaturaWilgotnośćZachmurzenieWiatrCiśnienieWidzialnośćZjawiska
 Data    tng td wb rh cc ccl cl cm ch dir g1 g2 mslp ppp      
1994-06-21 00:00:00 9.6--- 9.0 9.396wxwxwx0wx--1018.8 977.4 0.0---wx
1994-06-21 01:00:00 8.4--- 7.8 8.196wxwxwx0wx--1018.8 977.3----wx
1994-06-21 02:00:00 7.7--- 7.3 7.597wxwxwx0wx--1019.3 977.6----wx
1994-06-21 03:00:00 7.5--- 7.3 7.499wxwxwx0wx--1019.8 978.1----wx
1994-06-21 04:00:00 7.2--- 7.0 7.199wxwxwx0wx--1020.5 978.7----wxw1
1994-06-21 05:00:00 9.9--- 9.5 9.798wxwxwxwxwx0wx--1020.4 979.0----wx
1994-06-21 06:00:00 12.8--- 10.3 11.485wxwxwxwxwx0wx--1020.2 979.2 0.0---wxw1
1994-06-21 07:00:00 15.4--- 10.1 12.471wxwxwxwxwx0wx--1020.0 979.4----wx
1994-06-21 08:00:00 17.5--- 8.4 12.555wxwxwxwxwx2wx--1020.1 979.8----wx
1994-06-21 09:00:00 18.6--- 8.1 12.850wxwxwxwx2wx--1020.0 979.8----wx
1994-06-21 10:00:00 19.4--- 8.5 13.349wxwxwxwx3wx--1019.7 979.7----wx
1994-06-21 11:00:00 20.4--- 8.4 13.746wxwxwxwx2wx--1019.5 979.6----wx
1994-06-21 12:00:00 21.4--- 9.3 14.546wxwxwxwx2wx--1019.2 979.4 0.0---wx
1994-06-21 13:00:00 21.5--- 8.6 14.244wxwxwxwx2wx--1018.8 979.1----wx
1994-06-21 14:00:00 21.9--- 8.0 14.141wxwxwxwx3wx--1018.6 978.9----wx
1994-06-21 15:00:00 21.6--- 8.3 14.142wxwxwxwx3wx--1018.5 978.8----wx
1994-06-21 16:00:00 21.6--- 9.4 14.646wxwxwxwxwx2wx--1018.2 978.5----wx
1994-06-21 17:00:00 21.5--- 10.6 15.150wxwxwxwxwx1wx--1018.1 978.4----wx
1994-06-21 18:00:00 20.6--- 10.9 14.954wxwxwx0wx--1018.3 978.5 0.0---wx
1994-06-21 19:00:00 18.0--- 13.0 15.073wxwxwxwx0wx--1018.6 978.4----wx
1994-06-21 20:00:00 16.4--- 11.2 13.471wxwxwxwx0wx--1019.3 978.9----wx
1994-06-21 21:00:00 13.6--- 11.1 12.285wxwxwxwx0wx--1019.5 978.7----wx
1994-06-21 22:00:00 13.2--- 10.9 11.986wxwx0wx--1019.5 978.6----wx
1994-06-21 23:00:00 13.4--- 11.1 12.186wxwxwx0wx--1019.2 978.4----wx

 

Źródłem pochodzenia danych jest Instytut Meteorologii i Gospodarki Wodnej – Państwowy Instytut Badawczy. Dane Instytutu Meteorologii i Gospodarki Wodnej – Państwowego Instytutu Badawczego zostały przetworzone.

Dane źródłowe można odnaleźć na stronie https://dane.imgw.pl